Time;durP1;ratioP1;P1;durP2;ratioP2;P2;SDS_P1;SDS_P2;PMS_P1;PMS_P2;Temp;Humidity;BMP_temperature;BMP_pressure;BME280_temperature;BME280_humidity;BME280_pressure;Samples;Min_cycle;Max_cycle;Signal;HPM_P1;HPM_P2
2022/04/07 00:00:16;;;;;;;;;4.00;1.00;;;;;11.35;67.14;99705.16;5085512;27;46219;-79
2022/04/07 00:02:41;;;;;;;;;1.00;1.00;;;;;11.16;67.39;99665.41;5070131;28;45500;-79
2022/04/07 00:05:07;;;;;;;;;2.00;1.00;;;;;11.29;67.58;99686.63;5068732;28;46048;-80
2022/04/07 00:07:33;;;;;;;;;1.00;1.00;;;;;11.28;67.62;99667.19;5068966;27;45225;-78
2022/04/07 00:09:58;;;;;;;;;2.00;1.00;;;;;11.02;66.98;99606.28;5067458;28;45501;-78
2022/04/07 00:12:23;;;;;;;;;1.00;1.00;;;;;11.08;67.47;99630.13;5075293;28;45307;-78
2022/04/07 00:14:49;;;;;;;;;0.00;0.00;;;;;11.07;67.38;99606.31;5071778;28;45229;-79
2022/04/07 00:17:14;;;;;;;;;1.00;1.00;;;;;11.37;67.40;99669.00;5077492;28;46909;-78
2022/04/07 00:19:39;;;;;;;;;0.00;0.00;;;;;11.22;66.80;99648.66;5074383;27;45438;-77
2022/04/07 00:22:05;;;;;;;;;1.00;1.00;;;;;11.37;67.33;99669.00;5066991;28;45238;-77
2022/04/07 00:24:30;;;;;;;;;3.00;1.25;;;;;11.22;66.69;99640.72;5072044;28;47103;-77
2022/04/07 00:26:55;;;;;;;;;1.50;0.50;;;;;11.29;67.00;99641.66;5077765;28;45378;-78
2022/04/07 00:29:21;;;;;;;;;1.75;1.00;;;;;11.13;66.54;99608.97;5077619;28;45402;-77
2022/04/07 00:31:53;;;;;;;;;3.00;1.75;;;;;11.27;66.96;99638.13;5076026;28;45481;-75
2022/04/07 00:34:19;;;;;;;;;2.00;1.00;;;;;11.41;66.91;99657.56;5076401;28;46418;-77
2022/04/07 00:36:44;;;;;;;;;0.00;0.00;;;;;11.35;66.68;99631.97;5067635;27;46286;-76
2022/04/07 00:39:09;;;;;;;;;1.00;1.00;;;;;11.42;66.27;99641.66;5072663;28;45237;-77
2022/04/07 00:41:37;;;;;;;;;1.75;1.00;;;;;11.12;66.82;99591.34;5079740;27;45600;-77
2022/04/07 00:44:02;;;;;;;;;2.50;1.00;;;;;11.36;66.85;99631.06;5076201;27;45452;-77
2022/04/07 00:46:28;;;;;;;;;0.00;0.00;;;;;11.46;66.32;99637.28;5060199;28;47442;-77
2022/04/07 00:48:53;;;;;;;;;1.75;1.00;;;;;11.47;65.82;99611.69;5067149;28;45502;-76
2022/04/07 00:51:19;;;;;;;;;1.50;0.50;;;;;11.47;66.36;99615.22;5079261;27;45276;-77
2022/04/07 00:53:45;;;;;;;;;1.00;1.00;;;;;11.23;66.54;99563.16;5067962;28;45593;-77
2022/04/07 00:56:12;;;;;;;;;0.00;0.00;;;;;11.33;65.88;99586.09;5072054;27;46991;-78
2022/04/07 00:58:37;;;;;;;;;1.50;1.00;;;;;11.49;65.64;99583.47;5065638;28;45442;-77
2022/04/07 01:01:02;;;;;;;;;5.25;2.00;;;;;11.30;65.99;99564.94;5069276;27;45203;-76
2022/04/07 01:03:28;;;;;;;;;1.75;1.00;;;;;11.21;65.88;99538.47;5059038;28;46397;-78
2022/04/07 01:05:53;;;;;;;;;2.00;1.00;;;;;11.42;66.24;99567.56;5070447;27;45738;-75
2022/04/07 01:08:19;;;;;;;;;2.00;1.00;;;;;11.51;66.18;99564.09;5062032;28;45228;-77
2022/04/07 01:10:45;;;;;;;;;0.75;0.75;;;;;11.50;66.39;99557.00;5072150;27;45507;-78
2022/04/07 01:13:11;;;;;;;;;2.00;1.00;;;;;11.36;65.97;99535.81;5059778;28;47222;-76
2022/04/07 01:15:37;;;;;;;;;1.25;1.25;;;;;11.13;66.22;99490.84;5067889;28;46341;-75
2022/04/07 01:18:03;;;;;;;;;2.50;1.00;;;;;11.25;66.09;99505.84;5062605;27;45382;-76
2022/04/07 01:20:29;;;;;;;;;1.75;1.00;;;;;11.42;66.33;99534.94;5070401;28;45414;-76
2022/04/07 01:22:56;;;;;;;;;4.50;1.00;;;;;11.43;65.81;99524.38;5061337;27;45355;-76
2022/04/07 01:25:25;;;;;;;;;2.25;1.00;;;;;11.48;67.22;99537.59;5065474;28;47182;-76
2022/04/07 01:27:50;;;;;;;;;3.50;1.75;;;;;11.36;67.85;99534.94;5078095;27;44977;-76
2022/04/07 01:30:17;;;;;;;;;1.25;1.25;;;;;11.44;68.87;99551.72;5070080;28;45140;-75
2022/04/07 01:32:47;;;;;;;;;1.00;1.00;;;;;11.42;68.46;99546.41;5066102;28;45265;-76
2022/04/07 01:35:13;;;;;;;;;2.50;2.50;;;;;11.38;68.31;99544.66;5077959;28;45452;-75
2022/04/07 01:37:42;;;;;;;;;2.00;2.00;;;;;11.35;69.02;99542.00;5078637;27;45240;-75
2022/04/07 01:40:10;;;;;;;;;5.00;1.00;;;;;11.35;68.07;99531.44;5068822;27;45996;-76
2022/04/07 01:42:37;;;;;;;;;2.00;0.50;;;;;11.27;68.25;99512.03;5073960;28;45969;-74
2022/04/07 01:45:04;;;;;;;;;1.00;1.00;;;;;11.15;68.43;99489.09;5066295;28;46565;-78
2022/04/07 01:47:32;;;;;;;;;2.75;1.00;;;;;11.34;68.82;99507.59;5079224;27;45240;-77
2022/04/07 01:50:03;;;;;;;;;1.00;1.00;;;;;11.36;68.56;99519.94;5074610;28;45295;-77
2022/04/07 01:52:29;;;;;;;;;3.25;1.00;;;;;11.18;68.36;99473.22;5071184;27;46164;-77
2022/04/07 01:54:55;;;;;;;;;2.00;1.00;;;;;11.40;68.31;99504.97;5072757;28;47383;-77
2022/04/07 01:57:23;;;;;;;;;1.00;1.00;;;;;11.40;68.22;99508.50;5073445;28;45520;-77
2022/04/07 01:59:52;;;;;;;;;2.00;2.00;;;;;11.36;69.00;99492.63;5077762;28;45600;-76
2022/04/07 02:02:19;;;;;;;;;1.25;1.25;;;;;10.90;67.84;99416.81;5074813;28;46427;-78
2022/04/07 02:05:15;;;;;;;;;1.50;1.00;;;;;11.42;67.74;99511.13;5076870;28;46027;-76
2022/04/07 02:07:42;;;;;;;;;1.00;1.00;;;;;11.42;68.34;99504.06;5055868;28;45793;-74
2022/04/07 02:10:09;;;;;;;;;0.25;0.25;;;;;11.35;69.27;99486.44;5078492;28;45307;-75
2022/04/07 02:12:37;;;;;;;;;0.25;0.25;;;;;11.40;68.76;99500.56;5076846;28;47064;-75
2022/04/07 02:15:06;;;;;;;;;1.00;1.00;;;;;11.15;68.84;99445.91;5073921;28;45418;-75
2022/04/07 02:17:32;;;;;;;;;1.00;1.00;;;;;11.41;68.80;99486.44;5067776;27;45379;-78
2022/04/07 02:19:59;;;;;;;;;1.25;1.00;;;;;11.41;69.43;99499.69;5072200;28;45346;-78
2022/04/07 02:22:28;;;;;;;;;1.00;1.00;;;;;11.41;68.83;99477.63;5066515;28;47221;-78
2022/04/07 02:24:53;;;;;;;;;1.50;1.50;;;;;11.19;69.24;99445.00;5076423;28;48105;-78
2022/04/07 02:27:19;;;;;;;;;1.25;0.25;;;;;11.24;69.16;99445.91;5081177;27;45242;-77
2022/04/07 02:29:44;;;;;;;;;0.75;0.75;;;;;11.24;69.64;99440.59;5074068;27;44855;-77
2022/04/07 02:32:13;;;;;;;;;3.00;1.00;;;;;11.42;69.80;99467.03;5066116;28;45531;-76
2022/04/07 02:34:40;;;;;;;;;1.00;1.00;;;;;11.22;70.00;99425.63;5074753;28;46516;-76
2022/04/07 02:37:06;;;;;;;;;3.00;0.00;;;;;11.31;70.31;99439.69;5081073;27;45346;-79
2022/04/07 02:39:31;;;;;;;;;1.25;1.25;;;;;11.30;70.76;99445.00;5079380;28;45315;-81
2022/04/07 02:41:56;;;;;;;;;0.50;0.50;;;;;11.33;71.79;99431.78;5067293;27;45232;-81
2022/04/07 02:44:22;;;;;;;;;3.00;1.00;;;;;11.25;70.71;99417.66;5070434;28;45083;-80
2022/04/07 02:46:48;;;;;;;;;2.75;1.00;;;;;11.24;72.20;99405.34;5074635;28;45291;-81
2022/04/07 02:49:13;;;;;;;;;4.00;2.00;;;;;11.30;71.48;99413.25;5078151;27;45178;-80
2022/04/07 02:51:38;;;;;;;;;1.75;1.00;;;;;11.10;72.18;99378.91;5064340;28;45409;-79
2022/04/07 02:54:04;;;;;;;;;2.25;2.00;;;;;11.05;73.47;99370.97;5066671;28;46005;-82
2022/04/07 02:56:30;;;;;;;;;2.00;1.00;;;;;11.12;71.57;99377.16;5080576;27;45240;-79
2022/04/07 02:58:56;;;;;;;;;2.75;2.00;;;;;11.25;71.08;99386.81;5067532;28;45236;-80
2022/04/07 03:01:22;;;;;;;;;1.00;1.00;;;;;11.25;72.21;99383.28;5069180;28;45347;-81
2022/04/07 03:03:52;;;;;;;;;3.00;1.00;;;;;11.25;70.56;99380.63;5065667;28;46019;-80
2022/04/07 03:06:18;;;;;;;;;1.75;1.00;;;;;10.95;72.12;99333.09;5063609;28;45300;-81
2022/04/07 03:08:43;;;;;;;;;3.00;1.00;;;;;11.03;72.03;99341.00;5067701;28;45234;-81
2022/04/07 03:11:09;;;;;;;;;1.00;1.00;;;;;11.22;71.10;99354.19;5076316;27;45470;-77
2022/04/07 03:13:38;;;;;;;;;2.00;1.00;;;;;11.12;71.50;99332.19;5066716;28;45164;-84
2022/04/07 03:16:04;;;;;;;;;0.50;0.50;;;;;11.30;72.71;99347.13;5074739;27;45315;-80
2022/04/07 03:18:29;;;;;;;;;0.00;0.00;;;;;10.97;71.24;99290.75;5065364;28;45330;-82
2022/04/07 03:20:55;;;;;;;;;1.00;1.00;;;;;11.25;71.99;99333.03;5073836;27;45371;-83
2022/04/07 03:23:20;;;;;;;;;1.00;1.00;;;;;11.22;71.94;99317.16;5064882;28;45377;-80
2022/04/07 03:25:46;;;;;;;;;1.25;1.00;;;;;11.29;71.46;99316.28;5074862;27;45392;-82
2022/04/07 03:28:12;;;;;;;;;1.00;1.00;;;;;11.36;71.97;99308.31;5067211;28;45560;-79
2022/04/07 03:30:39;;;;;;;;;1.25;1.00;;;;;11.31;71.67;99296.84;5070340;28;45729;-82
2022/04/07 03:33:06;;;;;;;;;0.00;0.00;;;;;11.39;72.05;99297.72;5065793;28;45405;-82
2022/04/07 03:35:32;;;;;;;;;3.00;2.00;;;;;11.41;71.54;99289.78;5077986;28;45456;-82
2022/04/07 03:37:57;;;;;;;;;2.00;2.00;;;;;11.36;71.42;99279.22;5083720;28;44735;-80
2022/04/07 03:40:24;;;;;;;;;3.00;2.00;;;;;10.96;72.90;99194.72;5080773;27;45507;-83
2022/04/07 03:42:50;;;;;;;;;3.00;3.00;;;;;11.38;71.88;99263.34;5060757;28;45225;-82
2022/04/07 03:45:15;;;;;;;;;5.00;1.50;;;;;11.44;72.82;99263.31;5093147;27;45362;-82
2022/04/07 03:47:41;;;;;;;;;1.00;1.00;;;;;11.45;72.03;99254.47;5079537;28;45365;-81
2022/04/07 03:50:07;;;;;;;;;2.25;2.25;;;;;11.40;73.75;99233.34;5078580;27;45292;-80
2022/04/07 03:52:33;;;;;;;;;2.75;1.00;;;;;11.29;73.59;99206.06;5069116;28;47412;-81
2022/04/07 03:54:58;;;;;;;;;2.75;2.00;;;;;11.35;72.67;99207.81;5073096;27;45284;-79
2022/04/07 03:57:24;;;;;;;;;5.00;3.00;;;;;11.46;73.29;99211.28;5072287;28;45189;-79
2022/04/07 03:59:50;;;;;;;;;3.75;2.50;;;;;11.18;74.21;99160.28;5072743;28;45188;-80
2022/04/07 04:02:15;;;;;;;;;1.75;1.00;;;;;11.35;72.38;99182.22;5060250;27;45244;-79
2022/04/07 04:04:41;;;;;;;;;2.50;2.25;;;;;11.25;73.30;99164.63;5074094;28;45358;-79
2022/04/07 04:07:06;;;;;;;;;3.25;2.00;;;;;11.11;72.73;99135.59;5060646;28;45371;-78
2022/04/07 04:09:32;;;;;;;;;4.00;2.00;;;;;11.25;72.78;99143.47;5072125;28;44811;-82
2022/04/07 04:11:58;;;;;;;;;1.25;0.25;;;;;11.48;72.85;99175.09;5076474;28;46972;-82
2022/04/07 04:14:23;;;;;;;;;2.00;2.00;;;;;11.57;73.41;99177.69;5078331;27;45488;-82
2022/04/07 04:16:48;;;;;;;;;3.50;1.00;;;;;11.30;73.49;99135.53;5068010;28;45406;-81
2022/04/07 04:19:14;;;;;;;;;1.00;1.00;;;;;11.57;73.21;99176.81;5070054;28;47285;-81
2022/04/07 04:21:39;;;;;;;;;3.00;1.00;;;;;11.41;73.50;99144.28;5066130;28;46072;-82
2022/04/07 04:24:05;;;;;;;;;2.25;2.00;;;;;11.54;74.74;99161.84;5068168;28;45507;-80
2022/04/07 04:26:30;;;;;;;;;5.00;1.00;;;;;11.44;73.46;99133.66;5064920;28;45287;-82
2022/04/07 04:28:56;;;;;;;;;4.25;1.00;;;;;11.59;74.22;99152.09;5068505;28;45371;-80
2022/04/07 04:31:24;;;;;;;;;1.50;1.00;;;;;11.66;72.99;99160.88;5062906;28;46887;-80
2022/04/07 04:33:51;;;;;;;;;1.25;1.25;;;;;11.62;73.01;99157.38;5061959;28;45299;-81
2022/04/07 04:36:16;;;;;;;;;2.75;1.50;;;;;11.73;73.30;99167.88;5063299;27;45465;-81
2022/04/07 04:38:42;;;;;;;;;2.50;1.50;;;;;11.50;73.45;99123.03;5064052;28;45401;-80
2022/04/07 04:41:07;;;;;;;;;2.50;2.50;;;;;11.52;74.62;99129.22;5078714;28;46123;-80
2022/04/07 04:43:32;;;;;;;;;1.00;1.00;;;;;11.78;73.75;99173.16;5079001;27;45376;-79
2022/04/07 04:45:58;;;;;;;;;1.00;1.00;;;;;11.78;74.35;99162.56;5076934;28;45308;-82
2022/04/07 04:48:23;;;;;;;;;4.25;1.75;;;;;11.64;73.80;99117.66;5078620;27;45513;-81
2022/04/07 04:50:49;;;;;;;;;3.00;1.50;;;;;11.64;74.32;99121.19;5080640;27;45438;-80
2022/04/07 04:53:14;;;;;;;;;1.00;1.00;;;;;11.47;73.66;99093.09;5067446;28;45322;-79
2022/04/07 04:55:40;;;;;;;;;2.00;2.00;;;;;11.49;74.18;99093.97;5077476;28;45306;-78
2022/04/07 04:58:11;;;;;;;;;4.50;1.00;;;;;11.17;74.31;99029.81;5068558;28;45539;-77
2022/04/07 05:00:36;;;;;;;;;1.00;1.00;;;;;11.80;73.77;99131.66;5076480;28;46269;-78
2022/04/07 05:03:02;;;;;;;;;1.75;1.00;;;;;11.63;73.68;99098.25;5066268;27;45434;-78
2022/04/07 05:05:27;;;;;;;;;0.33;0.33;;;;;11.69;74.10;99110.56;5075862;28;45277;-78
2022/04/07 05:07:52;;;;;;;;;3.50;2.00;;;;;11.61;73.30;99089.44;5077315;28;46010;-78
2022/04/07 05:10:18;;;;;;;;;4.25;3.00;;;;;11.87;73.55;99120.16;5074336;27;45950;-79
2022/04/07 05:12:44;;;;;;;;;2.75;2.00;;;;;11.81;72.71;99102.53;5064045;28;45292;-78
2022/04/07 05:15:09;;;;;;;;;4.00;2.00;;;;;11.92;72.89;99101.59;5075709;28;45510;-80
2022/04/07 05:17:35;;;;;;;;;2.00;1.00;;;;;11.74;73.05;99074.38;5058629;28;45273;-80
2022/04/07 05:20:00;;;;;;;;;1.00;1.00;;;;;11.82;72.54;99076.94;5067371;28;46982;-79
2022/04/07 05:22:26;;;;;;;;;1.00;1.00;;;;;11.47;72.49;99013.72;5079240;27;45351;-79
2022/04/07 05:24:52;;;;;;;;;2.50;2.50;;;;;11.90;72.80;99080.41;5078531;27;45925;-80
2022/04/07 05:27:17;;;;;;;;;2.00;1.00;;;;;12.00;72.43;99099.75;5071211;28;46118;-79
2022/04/07 05:29:43;;;;;;;;;2.50;2.50;;;;;11.75;71.66;99036.41;5069881;27;45275;-79
2022/04/07 05:32:08;;;;;;;;;3.75;1.50;;;;;11.80;72.81;99041.66;5079408;28;44748;-79
2022/04/07 05:34:34;;;;;;;;;3.00;1.75;;;;;11.77;72.86;99041.69;5068710;27;45376;-78
2022/04/07 05:36:59;;;;;;;;;3.00;3.00;;;;;12.05;72.37;99067.06;5064010;28;46164;-76
2022/04/07 05:39:25;;;;;;;;;1.75;1.75;;;;;11.93;72.33;99048.66;5057892;28;45462;-77
2022/04/07 05:41:50;;;;;;;;;2.75;2.00;;;;;11.97;72.46;99034.47;5077190;28;45295;-79
2022/04/07 05:44:15;;;;;;;;;1.50;1.00;;;;;11.83;72.29;99020.47;5071103;27;45294;-83
2022/04/07 05:46:41;;;;;;;;;2.25;1.00;;;;;11.78;72.15;99012.53;5063875;28;45356;-77
2022/04/07 05:49:08;;;;;;;;;2.00;1.00;;;;;12.02;72.44;99042.38;5071130;28;45382;-78
2022/04/07 05:51:33;;;;;;;;;0.75;0.75;;;;;11.76;72.13;98986.97;5071235;27;45328;-78
2022/04/07 05:53:59;;;;;;;;;3.50;1.00;;;;;11.99;72.16;99035.34;5078832;28;45293;-80
2022/04/07 05:56:24;;;;;;;;;1.00;1.00;;;;;12.15;71.52;99048.41;5079981;27;45330;-77
2022/04/07 05:58:49;;;;;;;;;0.50;0.50;;;;;12.19;70.83;99058.09;5067131;28;45437;-79
2022/04/07 06:01:17;;;;;;;;;0.00;0.00;;;;;12.21;70.39;99046.59;5094995;27;45330;-80
2022/04/07 06:03:43;;;;;;;;;2.33;0.33;;;;;12.24;70.10;99043.91;5078456;27;45380;-81
2022/04/07 06:06:08;;;;;;;;;0.67;0.67;;;;;12.25;70.67;99043.00;5077904;27;45500;-76
2022/04/07 06:08:34;;;;;;;;;1.00;1.00;;;;;12.22;70.14;99035.09;5077876;27;45306;-80
2022/04/07 06:10:59;;;;;;;;;2.00;0.00;;;;;12.09;70.15;99023.75;5076525;28;45277;-77
2022/04/07 06:13:24;;;;;;;;;0.00;0.00;;;;;12.08;70.37;98994.66;5081438;27;45662;-78
2022/04/07 06:15:50;;;;;;;;;2.00;2.00;;;;;12.17;69.82;99018.38;5075665;27;45489;-80
2022/04/07 06:18:16;;;;;;;;;1.00;1.00;;;;;12.25;69.75;99028.88;5063895;27;46012;-80
2022/04/07 06:20:42;;;;;;;;;1.00;1.00;;;;;12.12;70.48;99017.53;5074096;27;45331;-78
2022/04/07 06:23:08;;;;;;;;;1.00;1.00;;;;;12.25;69.98;99023.59;5063074;27;45890;-77
2022/04/07 06:25:34;;;;;;;;;1.33;0.33;;;;;12.26;70.87;99031.50;5070452;28;45581;-76
2022/04/07 06:28:02;;;;;;;;;3.33;1.00;;;;;12.27;70.04;99025.34;5060355;27;45627;-79
2022/04/07 06:30:28;;;;;;;;;2.00;1.00;;;;;12.21;70.15;99012.16;5080040;27;45246;-80
2022/04/07 06:32:53;;;;;;;;;1.00;1.00;;;;;12.27;70.51;99024.47;5059733;28;45319;-77
2022/04/07 06:35:25;;;;;;;;;2.00;1.00;;;;;12.22;71.56;99020.97;5094155;27;45408;-77
2022/04/07 06:37:58;;;;;;;;;1.00;1.00;;;;;12.04;70.63;98983.22;5080885;27;45425;-77
2022/04/07 06:40:30;;;;;;;;;3.00;3.00;;;;;12.26;71.29;99001.50;5069897;28;45531;-76
2022/04/07 06:42:58;;;;;;;;;2.50;1.25;;;;;12.24;72.37;99020.06;5071987;28;45236;-77
2022/04/07 06:45:27;;;;;;;;;0.00;0.00;;;;;12.25;71.39;99013.00;5068295;28;45399;-75
2022/04/07 06:47:53;;;;;;;;;2.33;1.00;;;;;12.25;71.16;99023.59;5059366;28;45305;-75
2022/04/07 06:50:20;;;;;;;;;1.00;1.00;;;;;12.09;71.37;98986.66;5073353;28;45327;-75
2022/04/07 06:52:45;;;;;;;;;1.00;1.00;;;;;12.28;71.57;99005.88;5065995;28;45255;-78
2022/04/07 06:55:15;;;;;;;;;2.00;1.00;;;;;12.19;71.71;98965.41;5067141;27;45413;-76
2022/04/07 06:58:00;;;;;;;;;3.00;0.67;;;;;12.36;71.32;99012.88;5062179;27;45318;-79
2022/04/07 07:00:33;;;;;;;;;0.33;0.33;;;;;12.39;70.86;98995.16;5065680;28;45464;-77
2022/04/07 07:03:01;;;;;;;;;1.67;1.00;;;;;12.20;70.74;98968.00;5059923;28;45292;-76
2022/04/07 07:05:29;;;;;;;;;1.00;1.00;;;;;12.44;70.67;98996.00;5066012;28;45519;-78
2022/04/07 07:07:55;;;;;;;;;2.00;0.00;;;;;12.40;71.12;98988.94;5059473;28;45701;-79
2022/04/07 07:10:22;;;;;;;;;0.33;0.33;;;;;12.22;71.32;98945.03;5068569;28;45411;-80
2022/04/07 07:12:49;;;;;;;;;0.00;0.00;;;;;12.20;70.72;98943.28;5060648;28;45326;-80
2022/04/07 07:15:14;;;;;;;;;0.00;0.00;;;;;12.46;71.15;98977.41;5073385;28;45473;-77
2022/04/07 07:17:40;;;;;;;;;0.00;0.00;;;;;12.55;71.00;98985.25;5066050;27;46023;-76
2022/04/07 07:20:08;;;;;;;;;0.00;0.00;;;;;12.46;70.88;98965.06;5071197;28;46136;-76
2022/04/07 07:22:34;;;;;;;;;0.00;0.00;;;;;12.35;71.14;98956.38;5065856;28;45334;-78
2022/04/07 07:25:00;;;;;;;;;0.00;0.00;;;;;12.60;70.97;98995.78;5079888;27;45461;-77
2022/04/07 07:27:25;;;;;;;;;0.00;0.00;;;;;12.34;71.57;98936.03;5072311;28;47243;-79
2022/04/07 07:29:51;;;;;;;;;1.00;1.00;;;;;12.66;71.18;98988.66;5075913;28;44833;-77
2022/04/07 07:32:16;;;;;;;;;2.00;0.33;;;;;12.48;70.77;98955.28;5071831;27;45387;-77
2022/04/07 07:34:42;;;;;;;;;1.67;1.00;;;;;12.70;71.04;98986.81;5068132;28;45426;-77
2022/04/07 07:37:08;;;;;;;;;1.00;0.00;;;;;12.28;71.43;98920.22;5063289;28;45960;-79
2022/04/07 07:39:33;;;;;;;;;2.00;0.00;;;;;12.72;71.46;98982.38;5068223;28;45454;-80
2022/04/07 07:41:58;;;;;;;;;0.00;0.00;;;;;12.56;70.99;98939.28;5062567;28;45827;-80
2022/04/07 07:44:24;;;;;;;;;0.33;0.00;;;;;12.77;71.69;98969.91;5067927;28;45371;-80
2022/04/07 07:46:50;;;;;;;;;0.00;0.00;;;;;12.75;71.02;98954.03;5060720;28;46131;-78
2022/04/07 07:49:15;;;;;;;;;2.00;0.33;;;;;12.71;70.77;98935.53;5070441;28;45334;-81
2022/04/07 07:51:40;;;;;;;;;0.00;0.00;;;;;12.96;70.75;98960.78;5078289;28;45366;-79
2022/04/07 07:54:06;;;;;;;;;1.00;0.00;;;;;12.83;70.44;98932.72;5066999;28;45496;-78
2022/04/07 07:56:31;;;;;;;;;0.00;0.00;;;;;12.99;70.76;98943.97;5078748;27;46025;-80
2022/04/07 07:58:56;;;;;;;;;0.00;0.00;;;;;12.85;71.36;98924.72;5068532;28;45601;-79
2022/04/07 08:01:22;;;;;;;;;0.00;0.00;;;;;13.04;71.14;98957.16;5084612;27;44870;-80
2022/04/07 08:03:47;;;;;;;;;0.33;0.00;;;;;12.99;70.65;98930.69;5066428;28;45517;-77
2022/04/07 08:06:13;;;;;;;;;0.00;0.00;;;;;13.01;70.51;98910.34;5071557;28;47130;-80
2022/04/07 08:08:38;;;;;;;;;0.00;0.00;;;;;13.19;70.44;98931.28;5079782;27;45298;-79
2022/04/07 08:11:04;;;;;;;;;0.00;0.00;;;;;13.38;70.01;98941.59;5075432;27;45289;-77
2022/04/07 08:13:29;;;;;;;;;0.00;0.00;;;;;13.46;69.94;98952.09;5064219;27;45644;-77
2022/04/07 08:15:55;;;;;;;;;0.00;0.00;;;;;13.50;69.97;98954.69;5073978;27;45298;-78
2022/04/07 08:18:20;;;;;;;;;0.00;0.00;;;;;13.32;70.46;98910.75;5062522;27;45335;-78
2022/04/07 08:20:46;;;;;;;;;0.00;0.00;;;;;13.57;70.39;98953.66;5073935;28;45177;-78
2022/04/07 08:23:12;;;;;;;;;0.00;0.00;;;;;13.50;70.26;98941.41;5061781;27;45185;-79
2022/04/07 08:25:38;;;;;;;;;0.00;0.00;;;;;13.42;70.27;98915.00;5068086;28;47467;-78
2022/04/07 08:28:04;;;;;;;;;0.00;0.00;;;;;13.53;70.22;98922.78;5069333;28;45422;-77
2022/04/07 08:30:33;;;;;;;;;0.00;0.00;;;;;13.72;69.87;98943.66;5079535;27;45427;-78
2022/04/07 08:33:00;;;;;;;;;0.00;0.00;;;;;13.69;69.23;98904.75;5065529;28;45438;-79
2022/04/07 08:35:25;;;;;;;;;0.00;0.00;;;;;13.98;69.06;98932.56;5079103;27;46057;-78
2022/04/07 08:37:50;;;;;;;;;0.00;0.00;;;;;14.05;68.90;98912.94;5079813;27;45186;-79
2022/04/07 08:40:20;;;;;;;;;1.67;0.00;;;;;14.02;68.42;98897.06;5079795;27;45308;-78
2022/04/07 08:42:45;;;;;;;;;0.00;0.00;;;;;14.17;67.82;98923.31;5094918;27;46475;-79
2022/04/07 08:45:11;;;;;;;;;0.00;0.00;;;;;14.30;67.89;98926.59;5077539;28;45504;-77
2022/04/07 08:47:39;;;;;;;;;0.00;0.00;;;;;14.44;67.00;98927.16;5078848;27;45378;-78
2022/04/07 08:50:05;;;;;;;;;0.00;0.00;;;;;14.48;66.51;98909.34;5078484;27;45233;-77
2022/04/07 08:52:32;;;;;;;;;0.00;0.00;;;;;14.59;66.41;98931.34;5071707;27;45600;-77
2022/04/07 08:54:57;;;;;;;;;0.00;0.00;;;;;14.62;66.37;98941.91;5073671;28;45277;-78
2022/04/07 08:57:25;;;;;;;;;0.00;0.00;;;;;14.71;66.90;98935.50;5076644;28;45345;-78
2022/04/07 08:59:50;;;;;;;;;0.00;0.00;;;;;14.65;65.63;98903.72;5077464;27;45296;-76
2022/04/07 09:02:16;;;;;;;;;0.00;0.00;;;;;14.88;65.23;98930.66;5073679;28;47167;-76
2022/04/07 09:04:41;;;;;;;;;0.00;0.00;;;;;14.69;65.29;98908.91;5071229;28;47056;-77
2022/04/07 09:07:07;;;;;;;;;0.00;0.00;;;;;14.76;65.39;98902.56;5071744;27;45146;-81
2022/04/07 09:09:34;;;;;;;;;1.00;0.00;;;;;15.01;65.02;98936.53;5072538;28;45233;-81
2022/04/07 09:11:59;;;;;;;;;0.00;0.00;;;;;14.84;64.84;98931.63;5077365;28;46314;-76
2022/04/07 09:14:30;;;;;;;;;1.00;0.00;;;;;15.04;65.19;98933.84;5077562;28;46099;-77
2022/04/07 09:16:56;;;;;;;;;0.00;0.00;;;;;14.92;64.92;98900.41;5066586;28;45441;-74
2022/04/07 09:19:22;;;;;;;;;0.00;0.00;;;;;15.15;64.82;98914.94;5068651;28;45289;-77
2022/04/07 09:22:03;;;;;;;;;0.00;0.00;;;;;15.25;65.05;98932.44;5064975;28;45312;-75
2022/04/07 09:24:28;;;;;;;;;0.00;0.00;;;;;15.35;63.71;98925.09;5067717;28;45233;-78
2022/04/07 09:26:53;;;;;;;;;0.00;0.00;;;;;15.32;63.54;98918.06;5064157;28;45385;-77
2022/04/07 09:29:19;;;;;;;;;0.00;0.00;;;;;15.43;63.68;98939.97;5069579;28;45446;-76
2022/04/07 09:31:52;;;;;;;;;0.00;0.00;;;;;15.45;63.45;98935.47;5078477;27;45260;-77
2022/04/07 09:34:31;;;;;;;;;0.00;0.00;;;;;15.45;63.51;98942.56;5077619;27;45461;-75
2022/04/07 09:37:06;;;;;;;;;0.00;0.00;;;;;15.52;63.38;98943.31;5078617;27;45445;-77
2022/04/07 09:39:33;;;;;;;;;0.00;0.00;;;;;15.54;63.39;98931.69;5075493;27;45364;-77
2022/04/07 09:42:24;;;;;;;;;0.00;0.00;;;;;15.67;63.29;98945.56;5078408;28;45426;-78
2022/04/07 09:44:51;;;;;;;;;0.00;0.00;;;;;15.69;63.01;98943.78;5077978;27;45398;-78
2022/04/07 09:47:18;;;;;;;;;0.00;0.00;;;;;15.75;62.47;98956.94;5076802;28;45445;-76
2022/04/07 09:49:43;;;;;;;;;0.00;0.00;;;;;15.38;62.78;98898.41;5077593;27;45394;-76
2022/04/07 09:52:11;;;;;;;;;0.00;0.00;;;;;15.54;63.47;98926.34;5074698;27;46094;-76
2022/04/07 09:54:40;;;;;;;;;0.00;0.00;;;;;15.59;64.45;98967.06;5069641;28;45809;-76
2022/04/07 09:57:09;;;;;;;;;0.00;0.00;;;;;15.46;65.37;98957.66;5088319;27;45346;-78
2022/04/07 09:59:39;;;;;;;;;0.00;0.00;;;;;15.25;65.35;98956.38;5071366;28;45564;-76
2022/04/07 10:02:05;;;;;;;;;0.00;0.00;;;;;15.36;65.63;98991.59;5069609;28;46314;-82
2022/04/07 10:04:32;;;;;;;;;1.00;1.00;;;;;15.32;66.43;99044.94;5070280;28;46168;-77
2022/04/07 10:07:01;;;;;;;;;3.33;0.00;;;;;14.99;70.89;99037.72;5066470;28;45732;-76
2022/04/07 10:09:27;;;;;;;;;0.00;0.00;;;;;14.89;68.76;99059.22;5077688;27;45236;-74
2022/04/07 10:11:53;;;;;;;;;0.00;0.00;;;;;14.48;69.56;99029.00;5078091;28;45413;-74
2022/04/07 10:14:21;;;;;;;;;0.00;0.00;;;;;14.50;69.75;99061.75;5077094;27;45405;-76
2022/04/07 10:16:47;;;;;;;;;0.00;0.00;;;;;14.20;69.73;99026.00;5079060;27;45326;-75
2022/04/07 10:19:19;;;;;;;;;0.00;0.00;;;;;14.31;69.79;99037.28;5080690;27;45337;-75
2022/04/07 10:22:12;;;;;;;;;0.00;0.00;;;;;14.49;69.60;99066.19;5073491;27;45357;-75
2022/04/07 10:24:45;;;;;;;;;0.00;0.00;;;;;14.51;70.64;99085.66;5074463;28;45351;-76
2022/04/07 10:27:13;;;;;;;;;1.00;0.00;;;;;14.38;70.01;99089.44;5068974;27;45446;-76
2022/04/07 10:29:40;;;;;;;;;0.67;0.00;;;;;14.23;69.70;99074.66;5073486;28;45375;-76
2022/04/07 10:32:11;;;;;;;;;0.00;0.00;;;;;14.29;69.26;99103.78;5081322;27;45483;-77
2022/04/07 10:34:42;;;;;;;;;0.00;0.00;;;;;14.04;68.65;99076.78;5080205;27;46184;-76
2022/04/07 10:37:08;;;;;;;;;0.00;0.00;;;;;14.14;68.52;99104.03;5081139;27;45330;-77
2022/04/07 10:39:34;;;;;;;;;0.00;0.00;;;;;13.98;68.60;99076.00;5080514;27;45442;-77
2022/04/07 10:42:00;;;;;;;;;1.00;1.00;;;;;13.93;69.20;99081.41;5081107;27;45211;-75
2022/04/07 10:44:27;;;;;;;;;0.00;0.00;;;;;14.10;68.34;99097.91;5080481;27;46314;-75
2022/04/07 10:47:03;;;;;;;;;0.00;0.00;;;;;14.14;68.43;99114.66;5067520;28;45351;-76
2022/04/07 10:49:30;;;;;;;;;0.00;0.00;;;;;13.97;67.72;99098.16;5065812;28;45485;-76
2022/04/07 10:51:57;;;;;;;;;0.67;0.00;;;;;13.99;68.03;99114.94;5073452;28;45510;-75
2022/04/07 10:54:24;;;;;;;;;0.00;0.00;;;;;14.06;67.79;99111.31;5074544;28;47483;-76
2022/04/07 10:56:52;;;;;;;;;0.00;0.00;;;;;14.29;67.37;99151.63;5063483;28;45491;-78
2022/04/07 10:59:17;;;;;;;;;0.00;0.00;;;;;14.40;66.30;99130.19;5066952;28;45387;-77
2022/04/07 11:01:42;;;;;;;;;0.00;0.00;;;;;14.47;66.57;99144.22;5074113;28;45401;-76
2022/04/07 11:04:23;;;;;;;;;1.00;0.00;;;;;14.45;64.78;99141.63;5069099;28;46128;-77
2022/04/07 11:07:16;;;;;;;;;0.00;0.00;;;;;14.42;64.77;99154.06;5075526;27;45421;-76
2022/04/07 11:09:55;;;;;;;;;0.00;0.00;;;;;14.40;64.88;99166.53;5072436;28;45377;-77
2022/04/07 11:12:20;;;;;;;;;0.00;0.00;;;;;14.39;64.46;99156.78;5068409;28;45423;-78
2022/04/07 11:14:46;;;;;;;;;0.00;0.00;;;;;14.21;64.54;99126.09;5067752;27;45783;-78
2022/04/07 11:17:33;;;;;;;;;0.00;0.00;;;;;14.40;63.52;99155.91;5070072;28;45426;-77
2022/04/07 11:20:09;;;;;;;;;0.00;0.00;;;;;14.40;62.40;99179.81;5069829;28;45244;-76
2022/04/07 11:22:44;;;;;;;;;0.00;0.00;;;;;14.38;61.95;99171.84;5058604;28;46750;-77
2022/04/07 11:25:09;;;;;;;;;0.00;0.00;;;;;14.39;61.54;99188.69;5070686;27;47465;-77
2022/04/07 11:27:37;;;;;;;;;1.00;0.00;;;;;14.27;60.87;99181.78;5066370;27;45247;-77
2022/04/07 11:30:07;;;;;;;;;0.00;0.00;;;;;14.38;60.93;99190.47;5079468;27;45230;-73
2022/04/07 11:32:32;;;;;;;;;0.00;0.00;;;;;14.45;60.67;99193.88;5059727;28;45405;-73